createdAt,value
2023-04-07T00:00:19.742Z,6.62
2023-04-07T00:01:19.911Z,6.66
2023-04-07T00:02:21.003Z,6.62
2023-04-07T00:03:20.408Z,6.69
2023-04-07T00:04:20.654Z,6.72
2023-04-07T00:05:21.373Z,6.73
2023-04-07T00:06:21.828Z,6.66
2023-04-07T00:07:21.109Z,6.72
2023-04-07T00:08:21.862Z,6.71
2023-04-07T00:09:22.321Z,6.63
2023-04-07T00:10:21.643Z,6.66
2023-04-07T00:11:21.814Z,6.69
2023-04-07T00:12:22.819Z,6.83
2023-04-07T00:13:22.162Z,6.77
2023-04-07T00:14:23.193Z,6.73
2023-04-07T00:15:23.360Z,6.81
2023-04-07T00:16:25.315Z,6.77
2023-04-07T00:17:22.859Z,6.72
2023-04-07T00:18:23.688Z,6.76
2023-04-07T00:19:23.225Z,6.72
2023-04-07T00:20:23.421Z,6.71
2023-04-07T00:21:23.593Z,6.71
2023-04-07T00:22:24.726Z,6.80
2023-04-07T00:23:24.015Z,6.84
2023-04-07T00:24:33.903Z,6.81
2023-04-07T00:25:27.332Z,6.81
2023-04-07T00:26:24.561Z,6.71
2023-04-07T00:27:24.747Z,6.72
2023-04-07T00:28:24.937Z,6.83
2023-04-07T00:29:25.129Z,6.79
2023-04-07T00:30:46.303Z,6.79
2023-04-07T00:31:27.399Z,6.80
2023-04-07T00:32:25.736Z,6.77
2023-04-07T00:33:25.960Z,6.81
2023-04-07T00:34:26.134Z,6.77
2023-04-07T00:35:26.345Z,6.84
2023-04-07T00:36:26.457Z,6.73
2023-04-07T00:37:27.328Z,6.71
2023-04-07T00:38:26.856Z,6.91
2023-04-07T00:39:27.040Z,6.77
2023-04-07T00:40:27.237Z,6.72
2023-04-07T00:41:27.404Z,6.81
2023-04-07T00:42:28.192Z,6.83
2023-04-07T00:43:27.693Z,6.94
2023-04-07T00:44:27.857Z,6.90
2023-04-07T00:45:28.070Z,6.84
2023-04-07T00:46:28.324Z,6.86
2023-04-07T00:47:28.923Z,6.73
2023-04-07T00:48:30.297Z,6.83
2023-04-07T00:49:28.659Z,6.80
2023-04-07T00:50:29.833Z,6.84
2023-04-07T00:51:29.826Z,6.80
2023-04-07T00:52:29.831Z,6.73
2023-04-07T00:53:29.211Z,6.80
2023-04-07T00:54:29.872Z,6.72
2023-04-07T00:55:29.642Z,6.69
2023-04-07T00:56:30.676Z,6.63
2023-04-07T00:57:29.801Z,6.72
2023-04-07T00:58:29.949Z,6.65
2023-04-07T00:59:30.132Z,6.65
2023-04-07T01:00:30.283Z,6.72
2023-04-07T01:01:30.633Z,6.73
2023-04-07T01:02:31.484Z,6.73
2023-04-07T01:03:31.606Z,6.71
2023-04-07T01:04:31.782Z,6.72
2023-04-07T01:05:31.873Z,6.79
2023-04-07T01:06:31.266Z,6.80
2023-04-07T01:07:32.196Z,6.76
2023-04-07T01:08:32.331Z,6.79
2023-04-07T01:09:31.748Z,6.73
2023-04-07T01:10:32.878Z,6.72
2023-04-07T01:11:32.130Z,6.71
2023-04-07T01:12:32.300Z,6.77
2023-04-07T01:13:33.202Z,6.80
2023-04-07T01:14:32.619Z,6.77
2023-04-07T01:15:32.784Z,6.72
2023-04-07T01:16:33.015Z,6.76
2023-04-07T01:17:33.123Z,6.79
2023-04-07T01:18:33.278Z,6.77
2023-04-07T01:19:33.445Z,6.79
2023-04-07T01:20:34.828Z,6.80
2023-04-07T01:21:34.828Z,6.81
2023-04-07T01:22:33.959Z,6.72
2023-04-07T01:23:34.126Z,6.79
2023-04-07T01:24:34.282Z,6.77
2023-04-07T01:25:34.452Z,6.83
2023-04-07T01:26:34.620Z,6.77
2023-04-07T01:27:34.803Z,6.84
2023-04-07T01:28:35.000Z,6.79
2023-04-07T01:29:35.224Z,6.73
2023-04-07T01:30:35.399Z,6.91
2023-04-07T01:31:35.582Z,6.83
2023-04-07T01:32:36.361Z,6.79
2023-04-07T01:33:36.710Z,6.81
2023-04-07T01:34:37.829Z,6.90
2023-04-07T01:35:37.334Z,6.84
2023-04-07T01:36:37.924Z,6.81
2023-04-07T01:37:36.707Z,6.83
2023-04-07T01:38:36.894Z,6.94
2023-04-07T01:39:37.107Z,6.98
2023-04-07T01:40:38.874Z,6.91
2023-04-07T01:41:37.380Z,6.97
2023-04-07T01:42:38.333Z,6.95
2023-04-07T01:43:37.728Z,6.91
2023-04-07T01:44:37.907Z,6.80
2023-04-07T01:45:38.045Z,6.83
2023-04-07T01:46:38.214Z,6.90
2023-04-07T01:47:38.558Z,6.84
2023-04-07T01:48:38.685Z,6.91
2023-04-07T01:49:38.802Z,6.91
2023-04-07T01:50:39.843Z,6.86
2023-04-07T01:51:39.136Z,6.89
2023-04-07T01:52:39.881Z,6.94
2023-04-07T01:53:40.339Z,6.89
2023-04-07T01:54:40.339Z,6.89
2023-04-07T01:55:40.032Z,6.90
2023-04-07T01:56:40.198Z,6.89
2023-04-07T01:57:40.440Z,6.86
2023-04-07T01:58:40.629Z,6.89
2023-04-07T01:59:40.794Z,6.90
2023-04-07T02:00:40.958Z,6.90
2023-04-07T02:01:42.007Z,6.91
2023-04-07T02:02:41.597Z,6.89
2023-04-07T02:03:41.591Z,6.95
2023-04-07T02:04:41.603Z,6.95
2023-04-07T02:05:41.762Z,6.95
2023-04-07T02:06:41.934Z,6.83
2023-04-07T02:07:42.125Z,6.87
2023-04-07T02:08:42.277Z,6.98
2023-04-07T02:09:42.895Z,6.94
2023-04-07T02:10:42.601Z,6.97
2023-04-07T02:11:42.792Z,6.91
2023-04-07T02:12:43.842Z,6.91
2023-04-07T02:13:43.118Z,6.95
2023-04-07T02:14:43.326Z,6.94
2023-04-07T02:15:44.350Z,6.98
2023-04-07T02:16:45.793Z,6.99
2023-04-07T02:17:43.932Z,6.99
2023-04-07T02:18:44.893Z,6.83
2023-04-07T02:19:44.169Z,6.84
2023-04-07T02:20:44.401Z,6.90
2023-04-07T02:21:45.389Z,6.94
2023-04-07T02:22:44.777Z,6.87
2023-04-07T02:23:44.986Z,6.89
2023-04-07T02:24:45.173Z,6.97
2023-04-07T02:25:45.329Z,6.95
2023-04-07T02:26:45.511Z,6.90
2023-04-07T02:27:45.678Z,6.89
2023-04-07T02:28:45.900Z,6.94
2023-04-07T02:29:46.099Z,6.94
2023-04-07T02:30:46.297Z,6.90
2023-04-07T02:31:46.492Z,6.94
2023-04-07T02:32:46.667Z,6.94
2023-04-07T02:33:47.356Z,6.98
2023-04-07T02:34:46.900Z,6.90
2023-04-07T02:35:47.896Z,6.90
2023-04-07T02:36:47.950Z,6.97
2023-04-07T02:37:48.389Z,6.86
2023-04-07T02:38:48.389Z,6.91
2023-04-07T02:39:47.792Z,6.91
2023-04-07T02:40:48.891Z,7.01
2023-04-07T02:41:48.857Z,6.94
2023-04-07T02:42:48.387Z,6.90
2023-04-07T02:43:49.355Z,6.94
2023-04-07T02:44:49.355Z,6.95
2023-04-07T02:45:48.888Z,6.90
2023-04-07T02:46:49.058Z,6.99
2023-04-07T02:47:49.319Z,6.94
2023-04-07T02:48:50.356Z,6.95
2023-04-07T02:49:49.518Z,6.97
2023-04-07T02:50:50.852Z,6.95
2023-04-07T02:51:49.863Z,6.99
2023-04-07T02:52:50.858Z,7.09
2023-04-07T02:53:50.856Z,6.95
2023-04-07T02:54:51.367Z,6.99
2023-04-07T02:55:50.619Z,6.90
2023-04-07T02:56:50.797Z,7.04
2023-04-07T02:57:50.975Z,6.90
2023-04-07T02:58:51.804Z,6.90
2023-04-07T02:59:51.317Z,7.01
2023-04-07T03:00:52.428Z,6.90
2023-04-07T03:01:51.770Z,6.99
2023-04-07T03:02:52.134Z,6.99
2023-04-07T03:03:52.456Z,7.05
2023-04-07T03:04:52.285Z,6.94
2023-04-07T03:05:52.415Z,6.99
2023-04-07T03:06:52.586Z,6.94
2023-04-07T03:07:53.364Z,7.01
2023-04-07T03:08:53.865Z,7.09
2023-04-07T03:09:53.124Z,7.05
2023-04-07T03:10:53.299Z,7.01
2023-04-07T03:11:53.464Z,6.98
2023-04-07T03:12:54.349Z,6.98
2023-04-07T03:13:54.034Z,6.97
2023-04-07T03:14:54.057Z,6.99
2023-04-07T03:15:54.898Z,7.01
2023-04-07T03:16:55.418Z,6.97
2023-04-07T03:17:56.397Z,6.97
2023-04-07T03:18:55.353Z,7.02
2023-04-07T03:19:54.943Z,7.04
2023-04-07T03:20:55.900Z,7.05
2023-04-07T03:21:55.902Z,6.99
2023-04-07T03:22:55.418Z,6.98
2023-04-07T03:23:55.741Z,7.05
2023-04-07T03:24:55.904Z,6.99
2023-04-07T03:25:56.857Z,6.95
2023-04-07T03:26:56.115Z,7.04
2023-04-07T03:27:56.280Z,6.95
2023-04-07T03:28:56.442Z,6.95
2023-04-07T03:29:57.227Z,7.02
2023-04-07T03:30:57.379Z,6.97
2023-04-07T03:31:57.858Z,6.99
2023-04-07T03:32:57.179Z,7.02
2023-04-07T03:33:57.292Z,7.02
2023-04-07T03:34:57.460Z,6.97
2023-04-07T03:35:58.415Z,7.05
2023-04-07T03:36:57.810Z,7.07
2023-04-07T03:37:57.968Z,7.04
2023-04-07T03:38:58.909Z,7.05
2023-04-07T03:39:58.902Z,7.02
2023-04-07T03:40:58.519Z,6.98
2023-04-07T03:41:58.667Z,6.99
2023-04-07T03:42:58.952Z,7.04
2023-04-07T03:43:59.069Z,7.08
2023-04-07T03:44:59.864Z,7.04
2023-04-07T03:45:59.387Z,6.98
2023-04-07T03:46:59.554Z,7.04
2023-04-07T03:47:59.747Z,7.01
2023-04-07T03:48:59.908Z,6.98
2023-04-07T03:50:00.862Z,7.04
2023-04-07T03:51:00.218Z,7.07
2023-04-07T03:52:00.352Z,6.97
2023-04-07T03:53:00.503Z,7.04
2023-04-07T03:54:00.685Z,7.01
2023-04-07T03:55:00.877Z,6.90
2023-04-07T03:56:01.078Z,6.98
2023-04-07T03:57:01.234Z,7.02
2023-04-07T03:58:01.381Z,6.99
2023-04-07T03:59:02.362Z,7.02
2023-04-07T04:00:01.788Z,7.05
2023-04-07T04:01:01.941Z,7.05
2023-04-07T04:02:04.914Z,7.08
2023-04-07T04:03:02.430Z,7.04
2023-04-07T04:04:02.623Z,7.05
2023-04-07T04:05:02.692Z,7.02
2023-04-07T04:06:02.902Z,7.04
2023-04-07T04:07:03.094Z,7.05
2023-04-07T04:08:03.274Z,7.08
2023-04-07T04:09:03.463Z,7.07
2023-04-07T04:10:04.417Z,7.05
2023-04-07T04:11:04.872Z,7.07
2023-04-07T04:12:04.029Z,7.05
2023-04-07T04:13:04.914Z,7.04
2023-04-07T04:14:04.405Z,6.99
2023-04-07T04:15:04.578Z,6.95
2023-04-07T04:16:04.859Z,6.95
2023-04-07T04:17:05.455Z,7.02
2023-04-07T04:18:08.393Z,6.99
2023-04-07T04:19:05.249Z,7.08
2023-04-07T04:20:05.426Z,6.94
2023-04-07T04:21:06.373Z,6.98
2023-04-07T04:22:06.377Z,6.89
2023-04-07T04:23:05.889Z,7.05
2023-04-07T04:24:06.068Z,7.09
2023-04-07T04:25:06.909Z,7.04
2023-04-07T04:26:06.430Z,7.04
2023-04-07T04:27:06.941Z,6.99
2023-04-07T04:28:06.709Z,7.04
2023-04-07T04:29:07.378Z,7.05
2023-04-07T04:30:07.916Z,6.98
2023-04-07T04:31:07.191Z,7.04
2023-04-07T04:32:07.884Z,7.07
2023-04-07T04:33:07.542Z,7.01
2023-04-07T04:34:07.741Z,7.12
2023-04-07T04:35:07.897Z,7.04
2023-04-07T04:36:08.053Z,7.01
2023-04-07T04:37:09.742Z,7.01
2023-04-07T04:38:08.886Z,7.08
2023-04-07T04:39:08.539Z,7.01
2023-04-07T04:40:09.442Z,7.12
2023-04-07T04:41:09.399Z,7.09
2023-04-07T04:42:09.919Z,6.99
2023-04-07T04:43:09.139Z,7.07
2023-04-07T04:44:09.428Z,7.04
2023-04-07T04:45:09.512Z,7.08
2023-04-07T04:46:12.745Z,7.09
2023-04-07T04:47:09.897Z,6.97
2023-04-07T04:48:10.117Z,7.04
2023-04-07T04:49:10.262Z,6.95
2023-04-07T04:50:12.390Z,7.09
2023-04-07T04:51:10.927Z,7.13
2023-04-07T04:52:10.831Z,7.04
2023-04-07T04:53:11.885Z,7.15
2023-04-07T04:54:11.137Z,7.07
2023-04-07T04:55:13.972Z,7.07
2023-04-07T04:56:11.926Z,7.12
2023-04-07T04:57:12.383Z,7.12
2023-04-07T04:58:11.872Z,6.99
2023-04-07T04:59:12.027Z,7.02
2023-04-07T05:00:12.217Z,7.08
2023-04-07T05:01:13.446Z,7.08
2023-04-07T05:02:12.567Z,7.04
2023-04-07T05:03:14.750Z,7.12
2023-04-07T05:04:13.076Z,7.08
2023-04-07T05:05:14.056Z,7.07
2023-04-07T05:06:13.880Z,7.08
2023-04-07T05:07:13.520Z,6.98
2023-04-07T05:08:13.674Z,7.12
2023-04-07T05:09:13.828Z,7.07
2023-04-07T05:10:13.967Z,7.09
2023-04-07T05:11:14.126Z,7.12
2023-04-07T05:12:14.317Z,7.07
2023-04-07T05:13:14.490Z,7.13
2023-04-07T05:14:15.417Z,7.09
2023-04-07T05:15:14.812Z,7.09
2023-04-07T05:16:15.993Z,7.05
2023-04-07T05:17:15.163Z,7.13
2023-04-07T05:18:16.388Z,7.12
2023-04-07T05:19:16.428Z,7.13
2023-04-07T05:20:16.432Z,7.19
2023-04-07T05:21:16.938Z,7.08
2023-04-07T05:22:16.439Z,7.12
2023-04-07T05:23:17.251Z,7.16
2023-04-07T05:24:17.389Z,7.17
2023-04-07T05:25:17.400Z,7.09
2023-04-07T05:26:16.796Z,7.19
2023-04-07T05:27:16.946Z,7.17
2023-04-07T05:28:17.096Z,7.08
2023-04-07T05:29:17.244Z,7.15
2023-04-07T05:30:17.917Z,7.20
2023-04-07T05:31:18.918Z,7.19
2023-04-07T05:32:19.395Z,7.31
2023-04-07T05:33:17.866Z,7.29
2023-04-07T05:34:18.940Z,7.22
2023-04-07T05:35:19.392Z,7.24
2023-04-07T05:36:18.913Z,7.16
2023-04-07T05:37:18.561Z,7.20
2023-04-07T05:38:18.746Z,7.05
2023-04-07T05:39:20.897Z,7.09
2023-04-07T05:40:19.929Z,7.12
2023-04-07T05:41:19.892Z,7.17
2023-04-07T05:42:19.470Z,7.22
2023-04-07T05:43:20.399Z,7.05
2023-04-07T05:44:19.804Z,7.13
2023-04-07T05:45:20.489Z,7.15
2023-04-07T05:46:21.008Z,7.19
2023-04-07T05:47:20.445Z,7.13
2023-04-07T05:48:21.397Z,7.13
2023-04-07T05:49:21.431Z,7.08
2023-04-07T05:50:20.960Z,7.24
2023-04-07T05:51:21.901Z,7.23
2023-04-07T05:52:21.295Z,7.22
2023-04-07T05:53:21.450Z,7.19
2023-04-07T05:54:21.625Z,7.17
2023-04-07T05:55:21.749Z,7.32
2023-04-07T05:56:23.760Z,7.22
2023-04-07T05:57:22.116Z,7.13
2023-04-07T05:58:22.276Z,7.23
2023-04-07T05:59:22.447Z,7.15
2023-04-07T06:00:22.650Z,7.09
2023-04-07T06:01:23.441Z,7.23
2023-04-07T06:02:23.532Z,7.16
2023-04-07T06:03:23.062Z,7.22
2023-04-07T06:04:24.901Z,7.31
2023-04-07T06:05:23.434Z,7.35
2023-04-07T06:06:23.622Z,7.24
2023-04-07T06:07:23.850Z,7.24
2023-04-07T06:08:25.396Z,7.23
2023-04-07T06:09:24.901Z,7.23
2023-04-07T06:10:24.911Z,7.27
2023-04-07T06:11:24.320Z,7.24
2023-04-07T06:12:25.400Z,7.31
2023-04-07T06:13:24.690Z,7.31
2023-04-07T06:14:24.863Z,7.27
2023-04-07T06:15:25.946Z,7.34
2023-04-07T06:16:25.908Z,7.31
2023-04-07T06:17:26.499Z,7.31
2023-04-07T06:18:25.669Z,7.34
2023-04-07T06:19:25.845Z,7.26
2023-04-07T06:20:26.950Z,7.35
2023-04-07T06:21:26.254Z,7.26
2023-04-07T06:22:26.451Z,7.34
2023-04-07T06:23:28.461Z,7.35
2023-04-07T06:24:26.874Z,7.47
2023-04-07T06:25:28.772Z,7.47
2023-04-07T06:26:27.281Z,7.47
2023-04-07T06:27:28.414Z,7.45
2023-04-07T06:28:27.597Z,7.41
2023-04-07T06:29:27.712Z,7.52
2023-04-07T06:30:27.873Z,7.42
2023-04-07T06:31:28.018Z,7.49
2023-04-07T06:32:28.209Z,7.45
2023-04-07T06:33:28.338Z,7.44
2023-04-07T06:34:28.454Z,7.55
2023-04-07T06:35:28.678Z,7.50
2023-04-07T06:36:29.412Z,7.60
2023-04-07T06:37:29.150Z,7.56
2023-04-07T06:38:29.904Z,7.62
2023-04-07T06:39:30.441Z,7.66
2023-04-07T06:40:30.441Z,7.56
2023-04-07T06:41:30.945Z,7.60
2023-04-07T06:42:30.111Z,7.50
2023-04-07T06:43:30.942Z,7.53
2023-04-07T06:44:30.495Z,7.47
2023-04-07T06:45:31.285Z,7.55
2023-04-07T06:46:30.828Z,7.42
2023-04-07T06:47:31.010Z,7.67
2023-04-07T06:48:31.951Z,7.45
2023-04-07T06:49:31.905Z,7.52
2023-04-07T06:50:31.966Z,7.52
2023-04-07T06:51:31.752Z,7.63
2023-04-07T06:52:31.919Z,7.63
2023-04-07T06:53:32.915Z,7.63
2023-04-07T06:54:32.323Z,7.56
2023-04-07T06:55:32.516Z,7.62
2023-04-07T06:56:34.405Z,7.69
2023-04-07T06:57:33.906Z,7.66
2023-04-07T06:58:33.463Z,7.75
2023-04-07T06:59:33.928Z,7.75
2023-04-07T07:00:33.447Z,7.74
2023-04-07T07:01:34.487Z,7.84
2023-04-07T07:02:34.494Z,7.81
2023-04-07T07:03:34.861Z,7.85
2023-04-07T07:04:34.128Z,7.93
2023-04-07T07:05:34.961Z,7.94
2023-04-07T07:06:34.952Z,7.89
2023-04-07T07:07:34.967Z,7.92
2023-04-07T07:08:34.748Z,7.87
2023-04-07T07:09:34.940Z,7.94
2023-04-07T07:10:35.134Z,7.89
2023-04-07T07:11:35.326Z,7.96
2023-04-07T07:12:35.961Z,8.03
2023-04-07T07:13:36.476Z,8.00
2023-04-07T07:14:35.810Z,7.96
2023-04-07T07:15:35.968Z,7.99
2023-04-07T07:16:36.162Z,7.99
2023-04-07T07:17:36.368Z,7.97
2023-04-07T07:18:36.563Z,8.03
2023-04-07T07:19:36.788Z,8.03
2023-04-07T07:20:37.913Z,7.99
2023-04-07T07:21:37.914Z,8.08
2023-04-07T07:22:38.780Z,8.07
2023-04-07T07:23:37.527Z,8.10
2023-04-07T07:24:37.695Z,7.93
2023-04-07T07:25:37.828Z,8.11
2023-04-07T07:26:42.846Z,8.08
2023-04-07T07:27:39.440Z,8.07
2023-04-07T07:28:38.360Z,8.10
2023-04-07T07:29:38.545Z,8.11
2023-04-07T07:30:38.674Z,8.02
2023-04-07T07:31:38.883Z,8.20
2023-04-07T07:32:39.078Z,8.08
2023-04-07T07:33:40.913Z,8.14
2023-04-07T07:34:39.260Z,8.21
2023-04-07T07:35:40.947Z,8.17
2023-04-07T07:36:40.412Z,8.10
2023-04-07T07:37:39.787Z,8.25
2023-04-07T07:38:40.470Z,8.08
2023-04-07T07:39:40.089Z,8.04
2023-04-07T07:40:40.223Z,8.04
2023-04-07T07:41:40.380Z,8.10
2023-04-07T07:42:40.515Z,8.12
2023-04-07T07:43:41.912Z,8.20
2023-04-07T07:44:41.413Z,8.12
2023-04-07T07:45:40.985Z,8.15
2023-04-07T07:46:41.284Z,8.21
2023-04-07T07:47:42.074Z,8.12
2023-04-07T07:48:42.473Z,8.28
2023-04-07T07:49:41.632Z,8.22
2023-04-07T07:50:42.463Z,8.20
2023-04-07T07:51:42.048Z,8.21
2023-04-07T07:52:42.925Z,8.20
2023-04-07T07:53:42.410Z,8.22
2023-04-07T07:54:42.547Z,8.14
2023-04-07T07:55:43.417Z,8.21
2023-04-07T07:56:42.970Z,8.12
2023-04-07T07:57:43.125Z,8.14
2023-04-07T07:58:43.963Z,8.29
2023-04-07T07:59:43.967Z,8.17
2023-04-07T08:00:44.473Z,8.28
2023-04-07T08:01:43.924Z,8.21
2023-04-07T08:02:45.086Z,8.18
2023-04-07T08:03:44.285Z,8.17
2023-04-07T08:04:44.447Z,8.21
2023-04-07T08:05:44.535Z,8.26
2023-04-07T08:06:46.921Z,8.22
2023-04-07T08:07:44.906Z,8.17
2023-04-07T08:08:45.477Z,8.25
2023-04-07T08:09:45.255Z,8.26
2023-04-07T08:10:45.420Z,8.22
2023-04-07T08:11:47.922Z,8.25
2023-04-07T08:12:45.768Z,8.17
2023-04-07T08:13:46.296Z,8.22
2023-04-07T08:14:46.167Z,8.25
2023-04-07T08:15:46.936Z,8.26
2023-04-07T08:16:46.552Z,8.25
2023-04-07T08:17:47.548Z,8.26
2023-04-07T08:18:47.169Z,8.15
2023-04-07T08:19:47.471Z,8.20
2023-04-07T08:20:47.920Z,8.25
2023-04-07T08:21:47.420Z,8.15
2023-04-07T08:22:47.584Z,8.18
2023-04-07T08:23:48.672Z,8.10
2023-04-07T08:24:47.999Z,8.17
2023-04-07T08:25:48.175Z,8.04
2023-04-07T08:26:48.923Z,8.11
2023-04-07T08:27:50.291Z,8.14
2023-04-07T08:28:49.463Z,8.10
2023-04-07T08:29:49.032Z,8.12
2023-04-07T08:30:49.917Z,8.20
2023-04-07T08:31:49.551Z,8.15
2023-04-07T08:32:50.430Z,8.21
2023-04-07T08:33:50.679Z,8.25
2023-04-07T08:34:49.996Z,8.25
2023-04-07T08:35:51.009Z,8.28
2023-04-07T08:36:50.324Z,8.37
2023-04-07T08:37:50.474Z,8.32
2023-04-07T08:38:50.658Z,8.36
2023-04-07T08:39:51.793Z,8.29
2023-04-07T08:40:51.062Z,8.36
2023-04-07T08:41:51.932Z,8.40
2023-04-07T08:42:52.929Z,8.51
2023-04-07T08:43:51.684Z,8.42
2023-04-07T08:44:51.897Z,8.39
2023-04-07T08:45:53.513Z,8.50
2023-04-07T08:46:53.299Z,8.35
2023-04-07T08:47:52.373Z,8.30
2023-04-07T08:48:52.584Z,8.30
2023-04-07T08:49:53.503Z,8.36
2023-04-07T08:50:53.024Z,8.36
2023-04-07T08:51:53.944Z,8.42
2023-04-07T08:52:53.318Z,8.32
2023-04-07T08:53:53.517Z,8.28
2023-04-07T08:54:54.439Z,8.32
2023-04-07T08:55:53.826Z,8.30
2023-04-07T08:56:53.968Z,8.30
2023-04-07T08:57:54.936Z,8.44
2023-04-07T08:58:54.480Z,8.36
2023-04-07T08:59:54.510Z,8.47
2023-04-07T09:00:55.508Z,8.44
2023-04-07T09:01:54.960Z,8.39
2023-04-07T09:02:57.010Z,8.48
2023-04-07T09:03:55.518Z,8.53
2023-04-07T09:04:56.935Z,8.54
2023-04-07T09:05:55.676Z,8.50
2023-04-07T09:06:55.872Z,8.45
2023-04-07T09:07:56.020Z,8.53
2023-04-07T09:08:57.931Z,8.51
2023-04-07T09:09:56.295Z,8.55
2023-04-07T09:10:56.486Z,8.51
2023-04-07T09:11:58.435Z,8.58
2023-04-07T09:12:56.803Z,8.65
2023-04-07T09:13:56.992Z,8.63
2023-04-07T09:14:57.174Z,8.62
2023-04-07T09:15:57.332Z,8.57
2023-04-07T09:16:57.509Z,8.53
2023-04-07T09:17:57.620Z,8.58
2023-04-07T09:18:57.790Z,8.55
2023-04-07T09:19:57.953Z,8.62
2023-04-07T09:20:58.522Z,8.62
2023-04-07T09:21:58.302Z,8.69
2023-04-07T09:22:58.969Z,8.62
2023-04-07T09:23:58.702Z,8.68
2023-04-07T09:24:59.581Z,8.66
2023-04-07T09:26:00.105Z,8.69
2023-04-07T09:26:59.233Z,8.63
2023-04-07T09:28:00.942Z,8.62
2023-04-07T09:29:00.007Z,8.68
2023-04-07T09:30:00.439Z,8.55
2023-04-07T09:31:01.456Z,8.69
2023-04-07T09:32:00.979Z,8.57
2023-04-07T09:33:01.040Z,8.68
2023-04-07T09:34:00.476Z,8.68
2023-04-07T09:35:00.632Z,8.68
2023-04-07T09:36:00.803Z,8.66
2023-04-07T09:37:00.997Z,8.60
2023-04-07T09:38:01.169Z,8.51
2023-04-07T09:39:01.939Z,8.54
2023-04-07T09:40:01.445Z,8.55
2023-04-07T09:41:01.666Z,8.63
2023-04-07T09:42:02.442Z,8.60
2023-04-07T09:43:02.500Z,8.62
2023-04-07T09:44:02.960Z,8.54
2023-04-07T09:45:02.993Z,8.51
2023-04-07T09:46:02.565Z,8.47
2023-04-07T09:47:03.434Z,8.48
2023-04-07T09:48:02.974Z,8.54
2023-04-07T09:49:03.982Z,8.45
2023-04-07T09:50:03.347Z,8.50
2023-04-07T09:51:03.525Z,8.50
2023-04-07T09:52:03.646Z,8.48
2023-04-07T09:53:03.799Z,8.50
2023-04-07T09:54:04.502Z,8.53
2023-04-07T09:55:04.135Z,8.54
2023-04-07T09:56:04.496Z,8.45
2023-04-07T09:57:04.514Z,8.44
2023-04-07T09:58:06.444Z,8.48
2023-04-07T09:59:04.828Z,8.47
2023-04-07T10:00:05.482Z,8.29
2023-04-07T10:01:05.181Z,8.35
2023-04-07T10:02:06.148Z,8.42
2023-04-07T10:03:05.785Z,8.48
2023-04-07T10:04:05.783Z,8.50
2023-04-07T10:05:05.968Z,8.51
2023-04-07T10:06:06.133Z,8.50
2023-04-07T10:07:07.002Z,8.55
2023-04-07T10:08:06.520Z,8.62
2023-04-07T10:09:06.670Z,8.57
2023-04-07T10:10:08.491Z,8.71
2023-04-07T10:11:08.454Z,8.63
2023-04-07T10:12:07.227Z,8.73
2023-04-07T10:13:07.395Z,8.65
2023-04-07T10:14:07.564Z,8.63
2023-04-07T10:15:07.726Z,8.57
2023-04-07T10:16:07.858Z,8.60
2023-04-07T10:17:08.042Z,8.57
2023-04-07T10:18:08.195Z,8.54
2023-04-07T10:19:08.342Z,8.55
2023-04-07T10:20:08.535Z,8.57
2023-04-07T10:21:08.732Z,8.53
2023-04-07T10:22:09.494Z,8.54
2023-04-07T10:23:09.009Z,8.58
2023-04-07T10:24:09.173Z,8.55
2023-04-07T10:25:09.954Z,8.54
2023-04-07T10:26:10.321Z,8.54
2023-04-07T10:27:09.696Z,8.54
2023-04-07T10:28:11.451Z,8.51
2023-04-07T10:29:10.991Z,8.48
2023-04-07T10:30:11.822Z,8.51
2023-04-07T10:31:11.508Z,8.51
2023-04-07T10:32:10.571Z,8.50
2023-04-07T10:33:10.748Z,8.55
2023-04-07T10:34:10.918Z,8.50
2023-04-07T10:35:11.133Z,8.50
2023-04-07T10:36:12.051Z,8.45
2023-04-07T10:37:11.440Z,8.50
2023-04-07T10:38:11.711Z,8.51
2023-04-07T10:39:11.830Z,8.48
2023-04-07T10:40:12.515Z,8.44
2023-04-07T10:41:12.164Z,8.51
2023-04-07T10:42:12.996Z,8.55
2023-04-07T10:43:13.498Z,8.57
2023-04-07T10:44:46.935Z,8.53
2023-04-07T10:45:13.510Z,8.51
2023-04-07T10:46:13.099Z,8.68
2023-04-07T10:47:13.270Z,8.73
2023-04-07T10:48:14.018Z,8.71
2023-04-07T10:49:15.189Z,8.83
2023-04-07T10:50:13.905Z,8.78
2023-04-07T10:51:14.102Z,8.81
2023-04-07T10:52:15.053Z,8.78
2023-04-07T10:53:15.049Z,8.83
2023-04-07T10:54:14.593Z,8.84
2023-04-07T10:55:15.064Z,8.76
2023-04-07T10:56:14.992Z,8.79
2023-04-07T10:57:15.174Z,8.76
2023-04-07T10:58:15.400Z,8.87
2023-04-07T10:59:16.090Z,8.69
2023-04-07T11:00:16.551Z,8.76
2023-04-07T11:01:15.977Z,8.73
2023-04-07T11:02:16.176Z,8.76
2023-04-07T11:03:16.374Z,8.72
2023-04-07T11:04:16.506Z,8.72
2023-04-07T11:05:16.506Z,8.75
2023-04-07T11:06:19.516Z,8.76
2023-04-07T11:07:16.878Z,8.57
2023-04-07T11:08:17.013Z,8.68
2023-04-07T11:09:17.554Z,8.73
2023-04-07T11:10:17.360Z,8.73
2023-04-07T11:11:19.002Z,8.69
2023-04-07T11:12:18.552Z,8.79
2023-04-07T11:13:17.976Z,8.83
2023-04-07T11:14:18.158Z,8.73
2023-04-07T11:15:51.830Z,8.79
2023-04-07T11:16:19.103Z,8.81
2023-04-07T11:17:20.401Z,8.81
2023-04-07T11:18:20.540Z,8.83
2023-04-07T11:19:18.949Z,8.83
2023-04-07T11:20:19.056Z,8.83
2023-04-07T11:21:20.556Z,8.83
2023-04-07T11:23:21.548Z,8.79
2023-04-07T11:24:19.779Z,8.83
2023-04-07T11:25:19.974Z,8.86
2023-04-07T11:26:20.171Z,8.88
2023-04-07T11:27:20.314Z,8.91
2023-04-07T11:28:21.410Z,8.90
2023-04-07T11:29:20.697Z,8.91
2023-04-07T11:30:21.581Z,8.90
2023-04-07T11:31:21.130Z,8.96
2023-04-07T11:32:22.953Z,9.02
2023-04-07T11:33:21.502Z,9.05
2023-04-07T11:34:22.585Z,9.06
2023-04-07T11:35:22.585Z,9.09
2023-04-07T11:36:23.545Z,9.21
2023-04-07T11:37:22.187Z,9.13
2023-04-07T11:38:23.541Z,9.15
2023-04-07T11:39:22.564Z,9.20
2023-04-07T11:40:22.713Z,9.18
2023-04-07T11:41:22.876Z,9.32
2023-04-07T11:42:23.599Z,9.30
2023-04-07T11:43:23.262Z,9.27
2023-04-07T11:44:24.160Z,9.32
2023-04-07T11:45:23.564Z,9.27
2023-04-07T11:46:25.060Z,9.28
2023-04-07T11:47:23.891Z,9.45
2023-04-07T11:48:56.965Z,9.38
2023-04-07T11:49:25.122Z,9.32
2023-04-07T11:50:25.124Z,9.39
2023-04-07T11:51:24.535Z,9.48
2023-04-07T11:52:24.672Z,9.52
2023-04-07T11:53:24.817Z,9.46
2023-04-07T11:54:24.977Z,9.46
2023-04-07T11:55:25.139Z,9.46
2023-04-07T11:56:26.121Z,9.56
2023-04-07T11:57:25.634Z,9.45
2023-04-07T11:58:25.713Z,9.45
2023-04-07T11:59:25.858Z,9.49
2023-04-07T12:00:26.055Z,9.53
2023-04-07T12:01:27.134Z,9.68
2023-04-07T12:02:26.677Z,9.63
2023-04-07T12:03:27.236Z,9.66
2023-04-07T12:04:26.876Z,9.66
2023-04-07T12:05:26.893Z,9.58
2023-04-07T12:06:27.634Z,9.56
2023-04-07T12:07:28.431Z,9.71
2023-04-07T12:08:28.645Z,9.63
2023-04-07T12:09:28.135Z,9.61
2023-04-07T12:10:27.798Z,9.75
2023-04-07T12:11:27.987Z,9.73
2023-04-07T12:12:30.088Z,9.75
2023-04-07T12:13:28.391Z,9.66
2023-04-07T12:14:29.586Z,9.67
2023-04-07T12:15:29.655Z,9.64
2023-04-07T12:16:29.092Z,9.61
2023-04-07T12:17:29.257Z,9.57
2023-04-07T12:18:29.314Z,9.58
2023-04-07T12:19:29.523Z,9.61
2023-04-07T12:20:29.696Z,9.53
2023-04-07T12:21:31.586Z,9.53
2023-04-07T12:22:30.077Z,9.32
2023-04-07T12:23:31.128Z,9.18
2023-04-07T12:24:30.492Z,9.05
2023-04-07T12:25:32.108Z,9.01
2023-04-07T12:26:30.836Z,9.09
2023-04-07T12:27:42.129Z,9.05
2023-04-07T12:28:33.181Z,9.16
2023-04-07T12:29:31.646Z,9.30
2023-04-07T12:30:32.139Z,9.32
2023-04-07T12:31:31.804Z,9.34
2023-04-07T12:32:32.726Z,9.48
2023-04-07T12:33:33.595Z,9.48
2023-04-07T12:34:33.086Z,9.49
2023-04-07T12:35:32.532Z,9.49
2023-04-07T12:36:33.642Z,9.49
2023-04-07T12:37:34.596Z,9.53
2023-04-07T12:38:33.099Z,9.61
2023-04-07T12:39:33.242Z,9.61
2023-04-07T12:40:34.097Z,9.60
2023-04-07T12:41:34.593Z,9.70
2023-04-07T12:42:33.742Z,9.68
2023-04-07T12:43:33.894Z,9.67
2023-04-07T12:44:34.633Z,9.61
2023-04-07T12:45:35.656Z,9.68
2023-04-07T12:46:34.528Z,9.73
2023-04-07T12:47:35.666Z,9.78
2023-04-07T12:48:35.636Z,9.71
2023-04-07T12:49:35.157Z,9.63
2023-04-07T12:50:35.177Z,9.71
2023-04-07T12:51:36.115Z,9.67
2023-04-07T12:52:37.599Z,9.73
2023-04-07T12:53:36.602Z,9.64
2023-04-07T12:54:37.099Z,9.63
2023-04-07T12:55:36.005Z,9.63
2023-04-07T12:56:37.171Z,9.64
2023-04-07T12:57:36.382Z,9.61
2023-04-07T12:58:36.580Z,9.61
2023-04-07T12:59:36.786Z,9.46
2023-04-07T13:00:37.634Z,9.43
2023-04-07T13:01:37.348Z,9.45
2023-04-07T13:02:37.603Z,9.38
2023-04-07T13:03:38.253Z,9.34
2023-04-07T13:04:38.657Z,9.35
2023-04-07T13:05:38.002Z,9.39
2023-04-07T13:06:38.208Z,9.39
2023-04-07T13:07:38.418Z,9.34
2023-04-07T13:08:39.150Z,9.30
2023-04-07T13:09:38.801Z,9.32
2023-04-07T13:10:39.607Z,9.32
2023-04-07T13:11:39.194Z,9.28
2023-04-07T13:12:40.149Z,9.28
2023-04-07T13:13:40.117Z,9.24
2023-04-07T13:14:49.300Z,9.24
2023-04-07T13:15:41.794Z,9.25
2023-04-07T13:16:39.949Z,9.21
2023-04-07T13:17:41.160Z,9.20
2023-04-07T13:18:40.314Z,9.16
2023-04-07T13:19:40.688Z,9.25
2023-04-07T13:20:41.644Z,9.12
2023-04-07T13:21:46.577Z,9.21